Time;durP1;ratioP1;P1;durP2;ratioP2;P2;SDS_P1;SDS_P2;PMS_P1;PMS_P2;Temp;Humidity;BMP_temperature;BMP_pressure;BME280_temperature;BME280_humidity;BME280_pressure;Samples;Min_cycle;Max_cycle;Signal;HPM_P1;HPM_P2
2022/07/03 00:02:21;;;;;;;8.32;3.95;;;;;;;21.63;73.68;101279.75;4945366;28;20865;-71
2022/07/03 00:04:47;;;;;;;9.77;4.25;;;;;;;21.59;73.25;101281.88;4948665;28;20051;-71
2022/07/03 00:07:14;;;;;;;8.93;4.30;;;;;;;21.54;73.42;101274.84;4942422;28;20051;-72
2022/07/03 00:09:41;;;;;;;9.60;3.92;;;;;;;21.48;74.38;101270.25;4943706;28;20749;-72
2022/07/03 00:12:08;;;;;;;8.77;3.70;;;;;;;21.45;73.87;101271.16;4946730;28;20054;-71
2022/07/03 00:14:34;;;;;;;6.88;3.70;;;;;;;21.38;74.20;101269.41;4944931;28;20061;-71
2022/07/03 00:17:01;;;;;;;13.48;4.70;;;;;;;21.36;73.74;101263.44;4945530;28;20054;-71
2022/07/03 00:19:27;;;;;;;11.25;4.78;;;;;;;21.24;76.28;101271.94;4947946;28;20916;-72
2022/07/03 00:22:03;;;;;;;9.98;4.90;;;;;;;21.17;78.33;101273.00;4942063;28;20158;-70
2022/07/03 00:24:47;;;;;;;11.05;4.68;;;;;;;21.04;82.50;101269.44;4938037;28;20051;-71
2022/07/03 00:27:15;;;;;;;11.45;3.42;;;;;;;20.80;81.23;101270.25;4944039;28;20050;-71
2022/07/03 00:29:43;;;;;;;8.90;3.28;;;;;;;20.80;80.63;101270.25;4942242;28;20156;-71
2022/07/03 00:32:14;;;;;;;6.13;3.58;;;;;;;20.84;80.63;101270.91;4945375;28;20828;-71
2022/07/03 00:34:42;;;;;;;7.43;3.10;;;;;;;20.80;82.29;101271.06;4940016;28;20051;-71
2022/07/03 00:37:10;;;;;;;9.88;4.90;;;;;;;20.77;82.26;101280.41;4945920;28;20050;-71
2022/07/03 00:39:41;;;;;;;11.88;4.90;;;;;;;20.74;81.93;101274.88;4945274;28;20158;-72
2022/07/03 00:42:08;;;;;;;8.63;4.07;;;;;;;20.69;81.01;101281.09;4941076;28;20050;-72
2022/07/03 00:44:50;;;;;;;8.82;3.58;;;;;;;20.65;82.12;101281.19;4945951;28;20456;-72
2022/07/03 00:47:19;;;;;;;10.85;4.15;;;;;;;20.61;82.08;101283.34;4946719;28;20051;-71
2022/07/03 00:49:48;;;;;;;8.23;3.83;;;;;;;20.47;83.24;101274.59;4946069;28;20054;-70
2022/07/03 00:52:17;;;;;;;8.68;3.47;;;;;;;20.40;83.52;101281.25;4943462;28;20054;-72
2022/07/03 00:54:50;;;;;;;8.70;3.13;;;;;;;20.30;84.29;101279.56;4946472;28;20070;-71
2022/07/03 00:57:17;;;;;;;8.60;3.35;;;;;;;20.26;84.33;101279.66;4946994;28;20057;-70
2022/07/03 00:59:44;;;;;;;9.43;3.42;;;;;;;20.26;84.13;101271.22;4947009;28;20812;-71
2022/07/03 01:02:21;;;;;;;12.05;3.50;;;;;;;20.22;83.62;101264.94;4944824;28;20050;-72
2022/07/03 01:05:10;;;;;;;10.52;4.60;;;;;;;20.24;86.29;101261.69;4961107;28;20060;-71
2022/07/03 01:08:11;;;;;;;10.00;3.38;;;;;;;20.21;86.58;101259.78;4966604;28;20070;-71
2022/07/03 01:10:59;;;;;;;10.07;3.42;;;;;;;20.12;83.93;101254.81;4955510;28;20114;-71
2022/07/03 01:13:38;;;;;;;14.00;4.80;;;;;;;20.03;84.13;101257.50;4963305;28;20047;-72
2022/07/03 01:16:30;;;;;;;6.70;3.30;;;;;;;19.98;85.80;101258.06;4960495;28;20162;-71
2022/07/03 01:19:09;;;;;;;7.55;3.38;;;;;;;19.98;84.60;101251.66;4967369;28;20051;-71
2022/07/03 01:22:00;;;;;;;9.82;3.80;;;;;;;19.98;85.77;101260.88;4968583;28;20145;-70
2022/07/03 01:24:39;;;;;;;12.95;4.00;;;;;;;19.96;87.36;101252.13;4970312;28;20134;-71
2022/07/03 01:27:35;;;;;;;7.90;3.50;;;;;;;19.92;89.04;101251.41;4967267;28;20051;-71
2022/07/03 01:30:06;;;;;;;38.60;20.05;;;;;;;19.89;88.20;101246.72;4946095;28;20133;-72
2022/07/03 01:32:40;;;;;;;25.02;12.48;;;;;;;19.86;86.48;101246.81;4963628;28;20456;-71
2022/07/03 01:35:08;;;;;;;17.90;7.82;;;;;;;19.83;87.97;101242.91;4964760;28;20078;-71
2022/07/03 01:37:38;;;;;;;12.10;5.28;;;;;;;19.79;88.89;101245.03;4966261;28;20122;-71
2022/07/03 01:40:06;;;;;;;9.27;4.32;;;;;;;19.76;90.35;101237.50;4969185;28;20055;-71
2022/07/03 01:42:37;;;;;;;11.13;5.43;;;;;;;19.77;89.22;101229.84;4964966;28;20142;-70
2022/07/03 01:45:05;;;;;;;11.68;5.20;;;;;;;19.75;87.99;101232.31;4964234;28;20565;-72
2022/07/03 01:47:34;;;;;;;9.18;4.38;;;;;;;19.72;90.50;101236.81;4964915;28;20050;-70
2022/07/03 01:50:01;;;;;;;12.63;5.13;;;;;;;19.70;88.27;101232.88;4963044;28;20051;-71
2022/07/03 01:52:32;;;;;;;11.45;4.50;;;;;;;19.63;89.17;101239.50;4959586;28;20349;-71
2022/07/03 01:55:14;;;;;;;;;;;;;;;19.60;94.04;101242.38;4967757;28;20074;-70
2022/07/03 01:57:49;;;;;;;11.80;4.70;;;;;;;19.55;92.83;101249.38;4969677;28;19921;-72
2022/07/03 02:00:18;;;;;;;;;;;;;;;19.57;94.96;101240.47;4969542;28;20136;-71
2022/07/03 02:02:50;;;;;;;11.32;4.22;;;;;;;19.56;93.16;101247.31;4967172;28;20012;-72
2022/07/03 02:05:29;;;;;;;9.90;4.35;;;;;;;19.54;91.41;101235.78;4972844;28;20082;-73
2022/07/03 02:08:01;;;;;;;7.82;4.15;;;;;;;19.56;92.86;101233.28;4969250;28;20066;-72
2022/07/03 02:10:32;;;;;;;10.60;4.53;;;;;;;19.56;92.47;101228.47;4961129;28;20051;-73
2022/07/03 02:13:13;;;;;;;9.93;4.85;;;;;;;19.57;93.14;101223.63;4954907;28;20157;-73
2022/07/03 02:15:44;;;;;;;8.43;4.30;;;;;;;19.59;93.10;101232.41;4960404;28;20050;-72
2022/07/03 02:18:24;;;;;;;6.00;4.00;;;;;;;19.53;92.95;101229.38;4960756;28;20086;-71
2022/07/03 02:21:02;;;;;;;6.85;4.43;;;;;;;19.55;93.72;101232.53;4968842;28;20130;-70
2022/07/03 02:23:32;;;;;;;12.98;5.13;;;;;;;19.56;95.31;101238.91;4969876;28;20058;-71
2022/07/03 02:26:04;;;;;;;7.43;3.33;;;;;;;19.52;93.65;101235.44;4965869;28;20130;-71
2022/07/03 02:28:47;;;;;;;10.52;4.35;;;;;;;19.39;95.48;101231.78;4965571;28;20065;-71
2022/07/03 02:31:16;;;;;;;10.25;3.50;;;;;;;19.35;94.17;101233.94;4961697;28;20531;-71
2022/07/03 02:33:45;;;;;;;8.98;3.47;;;;;;;19.33;94.12;101227.97;4968994;28;20054;-72
2022/07/03 02:36:14;;;;;;;7.05;3.45;;;;;;;19.25;95.23;101230.19;4963839;28;20129;-72
2022/07/03 02:38:44;;;;;;;8.80;3.70;;;;;;;19.21;94.23;101226.69;4964067;28;20154;-71
2022/07/03 02:41:27;;;;;;;7.18;3.50;;;;;;;19.22;95.05;101224.66;4966506;28;20134;-71
2022/07/03 02:44:14;;;;;;;5.93;3.50;;;;;;;19.19;98.10;101228.34;4967832;28;20051;-71
2022/07/03 02:46:48;;;;;;;10.20;3.75;;;;;;;19.20;97.91;101230.69;4958192;28;20572;-72
2022/07/03 02:49:52;;;;;;;7.70;4.50;;;;;;;19.19;98.75;101231.94;4962347;28;20070;-71
2022/07/03 02:52:32;;;;;;;11.90;5.40;;;;;;;19.22;97.34;101224.66;4967129;28;20055;-71
2022/07/03 02:55:10;;;;;;;6.88;4.10;;;;;;;19.20;98.93;101227.91;4961808;28;20097;-72
2022/07/03 02:57:39;;;;;;;11.15;4.05;;;;;;;19.22;99.31;101224.66;4967513;28;20058;-72
2022/07/03 03:00:09;;;;;;;9.10;4.20;;;;;;;19.22;98.72;101225.44;4964252;28;20434;-71
2022/07/03 03:02:55;;;;;;;9.77;4.18;;;;;;;19.19;98.23;101229.13;4963164;28;20133;-71
2022/07/03 03:05:37;;;;;;;12.40;5.75;;;;;;;19.15;98.00;101234.06;4965150;28;20055;-70
2022/07/03 03:08:16;;;;;;;9.80;5.10;;;;;;;19.11;97.42;101233.38;4961022;28;20569;-72
2022/07/03 03:10:44;;;;;;;11.95;5.20;;;;;;;19.08;98.01;101230.66;4955556;28;20567;-71
2022/07/03 03:13:12;;;;;;;13.85;4.88;;;;;;;19.04;99.12;101230.75;4957061;28;20051;-71
2022/07/03 03:15:53;;;;;;;10.02;5.25;;;;;;;19.03;99.97;101229.19;4962689;28;20415;-70
2022/07/03 03:18:22;;;;;;;7.40;4.15;;;;;;;18.99;99.20;101228.50;4959028;28;20051;-71
2022/07/03 03:20:51;;;;;;;7.53;4.13;;;;;;;18.95;100.00;101227.00;4962441;28;20130;-73
2022/07/03 03:23:33;;;;;;;11.75;4.20;;;;;;;18.93;100.00;101224.66;4964679;28;20050;-71
2022/07/03 03:25:59;;;;;;;8.18;4.40;;;;;;;18.90;100.00;101228.34;4962363;28;20055;-73
2022/07/03 03:28:26;;;;;;;11.43;5.30;;;;;;;18.88;100.00;101233.59;4959570;28;20051;-70
2022/07/03 03:30:53;;;;;;;8.40;4.25;;;;;;;18.93;100.00;101237.91;4950681;28;20051;-74
2022/07/03 03:33:20;;;;;;;10.93;4.35;;;;;;;18.89;100.00;101229.56;4967323;28;20065;-71
2022/07/03 03:35:47;;;;;;;9.48;3.80;;;;;;;18.87;100.00;101232.00;4958052;28;20638;-71
2022/07/03 03:38:14;;;;;;;6.38;4.10;;;;;;;18.82;100.00;101224.16;4960854;28;20494;-73
2022/07/03 03:40:41;;;;;;;10.18;4.10;;;;;;;18.82;100.00;101240.97;4967172;28;20047;-72
2022/07/03 03:43:08;;;;;;;8.70;4.20;;;;;;;18.82;100.00;101240.97;4962132;28;20051;-73
2022/07/03 03:45:34;;;;;;;8.50;4.13;;;;;;;18.81;100.00;101242.22;4967964;28;20054;-72
2022/07/03 03:48:01;;;;;;;10.05;4.80;;;;;;;18.83;100.00;101242.53;4963587;28;20085;-72
2022/07/03 03:50:28;;;;;;;8.07;4.78;;;;;;;18.80;100.00;101243.41;4965442;28;20133;-70
2022/07/03 03:52:54;;;;;;;12.85;5.15;;;;;;;18.81;100.00;101244.22;4963829;28;20058;-72
2022/07/03 03:55:21;;;;;;;10.65;4.38;;;;;;;18.80;100.00;101242.66;4957267;28;20066;-70
2022/07/03 03:57:48;;;;;;;9.98;4.22;;;;;;;18.81;100.00;101244.22;4966961;28;20155;-71
2022/07/03 04:00:15;;;;;;;9.48;4.07;;;;;;;18.80;100.00;101240.63;4959621;28;20055;-72
2022/07/03 04:02:41;;;;;;;11.70;4.38;;;;;;;18.81;100.00;101235.81;4960076;28;20891;-71
2022/07/03 04:05:08;;;;;;;9.35;4.32;;;;;;;18.84;100.00;101237.72;4962992;28;20137;-72
2022/07/03 04:07:34;;;;;;;9.75;4.78;;;;;;;18.85;100.00;101236.50;4961476;28;20756;-71
2022/07/03 04:10:01;;;;;;;9.68;4.72;;;;;;;18.87;100.00;101237.63;4964411;28;20068;-72
2022/07/03 04:12:28;;;;;;;8.85;4.22;;;;;;;18.86;100.00;101238.09;4959933;28;20047;-71
2022/07/03 04:14:57;;;;;;;8.50;4.03;;;;;;;18.86;100.00;101233.25;4959703;28;20712;-71
2022/07/03 04:17:24;;;;;;;6.05;3.60;;;;;;;18.88;100.00;101230.81;4964495;28;20077;-72
2022/07/03 04:19:50;;;;;;;9.32;4.00;;;;;;;18.90;100.00;101233.94;4962729;28;20050;-72
2022/07/03 04:22:17;;;;;;;6.90;4.05;;;;;;;18.92;100.00;101242.72;4964107;28;20142;-71
2022/07/03 04:24:43;;;;;;;10.80;4.47;;;;;;;18.94;100.00;101250.69;4960666;28;20050;-71
2022/07/03 04:27:10;;;;;;;8.10;4.47;;;;;;;18.98;100.00;101248.56;4961359;28;20055;-71
2022/07/03 04:29:36;;;;;;;9.07;4.45;;;;;;;19.03;100.00;101256.47;4962744;28;20057;-73
2022/07/03 04:32:03;;;;;;;8.38;4.75;;;;;;;19.07;100.00;101255.09;4963977;28;20246;-72
2022/07/03 04:34:30;;;;;;;11.90;4.97;;;;;;;19.13;100.00;101250.53;4970619;28;20089;-73
2022/07/03 04:36:57;;;;;;;12.00;4.47;;;;;;;19.16;100.00;101257.28;4969368;28;20055;-70
2022/07/03 04:39:24;;;;;;;7.68;4.07;;;;;;;19.21;100.00;101263.16;4963483;28;20074;-72
2022/07/03 04:41:50;;;;;;;9.05;3.88;;;;;;;19.28;100.00;101256.56;4964828;28;20054;-69
2022/07/03 04:44:17;;;;;;;8.88;3.88;;;;;;;19.34;100.00;101264.00;4959228;28;20677;-71
2022/07/03 04:46:43;;;;;;;8.30;4.10;;;;;;;19.41;100.00;101266.59;4958023;28;20093;-72
2022/07/03 04:49:10;;;;;;;10.38;3.55;;;;;;;19.50;100.00;101263.13;4957301;28;20106;-71
2022/07/03 04:51:36;;;;;;;7.88;3.88;;;;;;;19.54;100.00;101259.00;4956846;28;20053;-73
2022/07/03 04:54:03;;;;;;;8.40;4.30;;;;;;;19.58;100.00;101258.91;4961515;28;20055;-71
2022/07/03 04:56:30;;;;;;;7.55;4.22;;;;;;;19.62;100.00;101266.00;4962969;28;20054;-72
2022/07/03 04:58:56;;;;;;;9.63;4.15;;;;;;;19.70;100.00;101263.75;4959741;28;20071;-72
2022/07/03 05:01:23;;;;;;;8.20;3.97;;;;;;;19.75;100.00;101263.97;4955106;28;20051;-71
2022/07/03 05:03:50;;;;;;;10.07;4.20;;;;;;;19.80;99.60;101266.25;4961824;28;20062;-72
2022/07/03 05:06:16;;;;;;;6.70;3.60;;;;;;;19.81;100.00;101256.59;4959358;28;20060;-72
2022/07/03 05:08:46;;;;;;;8.48;3.65;;;;;;;19.88;100.00;101253.56;4961275;28;20058;-69
2022/07/03 05:11:12;;;;;;;9.65;4.43;;;;;;;19.85;100.00;101268.50;4960433;28;20089;-71
2022/07/03 05:13:39;;;;;;;8.65;3.75;;;;;;;19.80;100.00;101271.88;4959266;28;20051;-71
2022/07/03 05:16:05;;;;;;;10.05;4.25;;;;;;;19.80;99.94;101271.88;4966043;28;20058;-71
2022/07/03 05:18:33;;;;;;;7.90;3.85;;;;;;;19.80;100.00;101279.50;4962697;28;20053;-71
2022/07/03 05:20:59;;;;;;;13.07;4.47;;;;;;;19.71;100.00;101285.00;4960912;28;20592;-71
2022/07/03 05:23:26;;;;;;;10.57;4.78;;;;;;;19.66;100.00;101283.53;4954351;28;20047;-71
2022/07/03 05:25:52;;;;;;;11.05;4.90;;;;;;;19.64;100.00;101288.78;4961816;28;20130;-73
2022/07/03 05:28:19;;;;;;;10.38;4.90;;;;;;;19.79;100.00;101289.97;4961995;28;20050;-72
2022/07/03 05:30:46;;;;;;;9.13;4.50;;;;;;;19.86;100.00;101289.75;4957065;28;20106;-70
2022/07/03 05:33:12;;;;;;;10.77;4.32;;;;;;;19.95;98.75;101301.09;4958414;28;20054;-72
2022/07/03 05:35:39;;;;;;;11.88;4.93;;;;;;;20.02;97.87;101289.63;4964331;28;20138;-72
2022/07/03 05:38:05;;;;;;;11.73;4.30;;;;;;;20.07;96.66;101291.91;4962599;28;20488;-72
2022/07/03 05:40:32;;;;;;;12.18;5.25;;;;;;;20.22;95.75;101295.09;4955037;28;20126;-73
2022/07/03 05:42:58;;;;;;;12.63;4.78;;;;;;;20.31;94.01;101293.16;4964531;28;20069;-71
2022/07/03 05:45:25;;;;;;;11.70;4.50;;;;;;;20.42;93.63;101306.88;4966713;28;20074;-73
2022/07/03 05:47:51;;;;;;;16.15;5.03;;;;;;;20.56;92.10;101306.44;4953781;28;20039;-70
2022/07/03 05:50:18;;;;;;;10.68;4.80;;;;;;;20.59;91.01;101302.72;4963359;28;22123;-72
2022/07/03 05:52:44;;;;;;;17.38;4.53;;;;;;;20.65;90.70;101311.38;4957757;28;20057;-72
2022/07/03 05:55:11;;;;;;;20.45;7.05;;;;;;;20.77;89.49;101302.91;4960216;28;20084;-70
2022/07/03 05:57:38;;;;;;;10.60;4.82;;;;;;;20.84;84.92;101307.50;4962098;28;20042;-70
2022/07/03 06:00:05;;;;;;;12.82;5.03;;;;;;;20.96;84.62;101309.53;4960952;28;20157;-70
2022/07/03 06:02:32;;;;;;;15.02;6.18;;;;;;;21.09;85.15;101305.41;4958917;28;20079;-69
2022/07/03 06:04:58;;;;;;;15.80;6.13;;;;;;;21.17;82.84;101314.41;4968218;28;20062;-69
2022/07/03 06:07:25;;;;;;;10.95;5.45;;;;;;;21.26;83.05;101308.88;4968934;28;20137;-70
2022/07/03 06:09:52;;;;;;;15.50;5.57;;;;;;;21.30;81.99;101310.31;4964231;28;20085;-69
2022/07/03 06:12:18;;;;;;;15.43;5.50;;;;;;;21.35;80.10;101306.13;4969257;28;20078;-69
2022/07/03 06:14:45;;;;;;;13.40;6.40;;;;;;;21.42;79.96;101314.31;4967750;28;20142;-70
2022/07/03 06:17:11;;;;;;;14.57;5.50;;;;;;;21.53;80.60;101309.84;4970742;28;20054;-69
2022/07/03 06:19:38;;;;;;;11.43;4.65;;;;;;;21.64;80.31;101312.28;4970128;28;20145;-70
2022/07/03 06:22:04;;;;;;;11.23;5.22;;;;;;;21.75;79.73;101319.13;4969578;28;20059;-71
2022/07/03 06:24:31;;;;;;;10.38;4.90;;;;;;;21.82;77.79;101313.22;4972893;28;20054;-70
2022/07/03 06:26:58;;;;;;;10.55;5.45;;;;;;;21.91;76.11;101310.44;4969403;28;20209;-70
2022/07/03 06:29:25;;;;;;;12.00;5.47;;;;;;;21.99;75.60;101310.97;4969878;28;20053;-70
2022/07/03 06:31:52;;;;;;;11.63;5.30;;;;;;;21.90;74.22;101313.75;4968074;28;20130;-70
2022/07/03 06:34:18;;;;;;;11.48;5.20;;;;;;;22.05;75.36;101311.94;4961594;28;20051;-70
2022/07/03 06:36:48;;;;;;;10.10;4.95;;;;;;;22.13;74.29;101311.22;4968438;28;20061;-70
2022/07/03 06:39:14;;;;;;;12.05;5.57;;;;;;;22.20;73.20;101318.59;4969756;28;20729;-70
2022/07/03 06:41:41;;;;;;;12.07;5.38;;;;;;;22.31;73.07;101313.34;4967871;28;20123;-69
2022/07/03 06:44:08;;;;;;;12.13;5.22;;;;;;;22.33;70.34;101316.47;4967586;28;20571;-70
2022/07/03 06:46:34;;;;;;;11.85;4.88;;;;;;;22.31;70.80;101319.75;4962641;28;20043;-67
2022/07/03 06:49:01;;;;;;;12.50;4.90;;;;;;;22.47;70.32;101324.34;4968836;28;20057;-73
2022/07/03 06:51:27;;;;;;;3.50;1.67;;;;;;;22.44;67.05;101325.25;4966661;28;20475;-67
2022/07/03 06:53:54;;;;;;;11.20;4.57;;;;;;;22.51;68.99;101319.41;4968941;28;20059;-68
2022/07/03 06:56:20;;;;;;;11.48;5.13;;;;;;;22.57;66.59;101318.31;4968671;28;20158;-68
2022/07/03 06:58:52;;;;;;;9.85;4.20;;;;;;;22.54;64.03;101324.06;4959835;28;20054;-69
2022/07/03 07:01:19;;;;;;;11.07;4.25;;;;;;;22.70;65.46;101321.81;4962420;28;20106;-69
2022/07/03 07:03:45;;;;;;;10.25;3.90;;;;;;;22.73;64.52;101325.72;4962800;28;20062;-70
2022/07/03 07:06:12;;;;;;;13.00;4.78;;;;;;;22.81;64.52;101329.81;4967983;28;20523;-68
2022/07/03 07:08:39;;;;;;;10.88;3.97;;;;;;;22.88;63.75;101326.69;4961230;28;20053;-69
2022/07/03 07:11:05;;;;;;;6.20;1.85;;;;;;;22.85;60.62;101335.31;4961833;28;20146;-70
2022/07/03 07:13:32;;;;;;;8.90;3.08;;;;;;;22.75;61.17;101338.09;4964158;28;20063;-71
2022/07/03 07:15:59;;;;;;;8.88;2.90;;;;;;;22.82;61.91;101339.06;4966859;28;20559;-69
2022/07/03 07:18:25;;;;;;;8.57;4.15;;;;;;;22.90;60.33;101329.03;4968360;28;20047;-70
2022/07/03 07:20:52;;;;;;;6.70;3.42;;;;;;;22.87;60.77;101341.28;4963996;28;20078;-73
2022/07/03 07:23:19;;;;;;;5.53;1.90;;;;;;;22.90;60.89;101341.13;4963619;28;20121;-71
2022/07/03 07:25:45;;;;;;;16.13;5.05;;;;;;;23.12;60.31;101335.38;4975405;28;20506;-70
2022/07/03 07:28:12;;;;;;;10.20;5.25;;;;;;;23.19;60.23;101337.88;4965733;28;20130;-70
2022/07/03 07:30:39;;;;;;;9.35;4.28;;;;;;;23.23;60.62;101328.03;4964751;28;20130;-70
2022/07/03 07:33:07;;;;;;;10.48;4.43;;;;;;;23.31;59.66;101328.50;4964097;28;20500;-71
2022/07/03 07:35:34;;;;;;;10.18;4.35;;;;;;;23.39;58.98;101324.13;4959307;28;20047;-72
2022/07/03 07:38:00;;;;;;;15.82;4.60;;;;;;;23.43;60.10;101331.19;4963545;28;20109;-72
2022/07/03 07:40:34;;;;;;;12.00;4.65;;;;;;;23.58;59.99;101329.28;4958021;28;20044;-75
2022/07/03 07:43:00;;;;;;;10.30;3.88;;;;;;;23.52;58.22;101336.81;4965951;28;20063;-74
2022/07/03 07:45:27;;;;;;;11.20;5.43;;;;;;;23.48;59.77;101333.38;4962852;28;20057;-71
2022/07/03 07:47:53;;;;;;;10.05;3.85;;;;;;;23.63;60.53;101328.66;4964438;28;20051;-72
2022/07/03 07:50:20;;;;;;;10.88;4.13;;;;;;;23.75;59.42;101329.72;4962344;28;20146;-70
2022/07/03 07:52:47;;;;;;;13.07;4.10;;;;;;;23.81;60.33;101331.44;4962224;28;20090;-71
2022/07/03 07:55:13;;;;;;;12.13;4.13;;;;;;;23.96;59.68;101323.91;4965009;28;20147;-70
2022/07/03 07:57:41;;;;;;;10.60;4.20;;;;;;;24.09;58.97;101329.34;4959652;28;20493;-70
2022/07/03 08:00:15;;;;;;;9.52;3.20;;;;;;;24.15;58.92;101327.47;4964691;28;20185;-70
2022/07/03 08:05:35;;;;;;;7.47;3.88;;;;;;;24.31;58.44;101329.94;4960485;28;20171;-67
2022/07/03 08:08:15;;;;;;;14.23;4.47;;;;;;;24.38;57.68;101329.59;4963171;28;20146;-67
2022/07/03 08:10:46;;;;;;;9.32;3.72;;;;;;;24.44;58.94;101339.75;4968008;28;20070;-69
2022/07/03 08:13:15;;;;;;;11.02;4.00;;;;;;;24.48;57.55;101334.75;4966802;28;20246;-73
2022/07/03 08:15:42;;;;;;;14.07;4.30;;;;;;;24.18;57.42;101332.97;4963019;28;20576;-73
2022/07/03 08:18:09;;;;;;;7.40;3.70;;;;;;;24.37;57.68;101333.69;4962228;28;20051;-70
2022/07/03 08:20:36;;;;;;;10.00;3.80;;;;;;;24.47;57.41;101332.38;4966055;28;20046;-74
2022/07/03 08:23:04;;;;;;;13.25;4.32;;;;;;;24.55;57.82;101331.56;4958704;28;20055;-72
2022/07/03 08:25:30;;;;;;;7.65;3.53;;;;;;;24.70;57.54;101331.66;4957995;28;20524;-71
2022/07/03 08:27:58;;;;;;;10.13;3.75;;;;;;;24.76;56.98;101339.03;4961046;28;20086;-71
2022/07/03 08:30:26;;;;;;;14.30;4.65;;;;;;;24.92;56.24;101326.50;4967345;28;20054;-71
2022/07/03 08:32:55;;;;;;;9.95;4.10;;;;;;;25.06;55.74;101323.75;4966827;28;20150;-71
2022/07/03 08:35:22;;;;;;;15.52;4.28;;;;;;;24.97;55.12;101328.66;4960602;28;20051;-70
2022/07/03 08:37:49;;;;;;;8.68;3.38;;;;;;;24.96;56.45;101336.38;4963377;28;20081;-70
2022/07/03 08:40:18;;;;;;;12.40;4.80;;;;;;;25.02;54.28;101328.00;4961373;28;20563;-73
2022/07/03 08:42:52;;;;;;;11.70;3.90;;;;;;;25.15;54.64;101332.16;4961455;28;20457;-69
2022/07/03 08:45:19;;;;;;;6.03;2.58;;;;;;;25.07;52.57;101325.28;4964131;28;20133;-69
2022/07/03 08:47:48;;;;;;;7.43;2.78;;;;;;;25.15;52.62;101322.88;4959196;28;20604;-68
2022/07/03 08:50:20;;;;;;;12.18;3.92;;;;;;;25.31;52.27;101327.38;4963582;28;20057;-68
2022/07/03 08:52:47;;;;;;;11.40;4.50;;;;;;;25.47;52.41;101330.50;4964412;28;20087;-68
2022/07/03 08:55:16;;;;;;;9.85;3.40;;;;;;;25.39;52.94;101334.22;4962546;28;20055;-70
2022/07/03 08:57:44;;;;;;;15.00;3.70;;;;;;;25.52;52.38;101327.03;4968457;28;20105;-67
2022/07/03 09:00:15;;;;;;;9.35;4.00;;;;;;;25.55;52.87;101331.72;4964412;28;20134;-69
2022/07/03 09:02:47;;;;;;;5.00;1.40;;;;;;;25.55;51.02;101333.75;4963295;28;20150;-71
2022/07/03 09:05:15;;;;;;;9.75;4.15;;;;;;;25.21;50.50;101328.66;4966032;28;20057;-67
2022/07/03 09:07:44;;;;;;;13.15;3.53;;;;;;;25.36;50.47;101324.63;4965753;28;20401;-68
2022/07/03 09:10:12;;;;;;;8.75;3.90;;;;;;;25.37;51.38;101317.69;4961740;28;20075;-70
2022/07/03 09:12:39;;;;;;;12.00;3.63;;;;;;;25.54;51.18;101323.72;4957298;28;20154;-72
2022/07/03 09:15:08;;;;;;;10.38;4.32;;;;;;;25.49;50.79;101333.66;4958235;28;20086;-73
2022/07/03 09:17:35;;;;;;;10.32;3.53;;;;;;;25.70;50.16;101328.88;4961547;28;20102;-71
2022/07/03 09:20:05;;;;;;;10.70;3.78;;;;;;;25.81;49.79;101331.94;4959789;28;20138;-72
2022/07/03 09:22:34;;;;;;;12.05;3.88;;;;;;;25.85;49.17;101327.63;4961090;28;20138;-71
2022/07/03 09:25:03;;;;;;;14.75;4.07;;;;;;;25.68;49.05;101322.94;4959387;28;20051;-69
2022/07/03 09:27:30;;;;;;;9.98;2.90;;;;;;;25.83;49.00;101330.19;4962065;28;20138;-66
2022/07/03 09:30:07;;;;;;;10.90;3.75;;;;;;;26.09;49.18;101327.56;4961981;28;20046;-69
2022/07/03 09:32:36;;;;;;;4.22;1.67;;;;;;;25.63;46.57;101335.72;4961221;28;20060;-71
2022/07/03 09:35:29;;;;;;;11.18;3.25;;;;;;;25.80;46.10;101336.03;4955952;28;20121;-70
2022/07/03 09:38:01;;;;;;;8.60;2.53;;;;;;;25.66;45.74;101345.31;4956095;28;20145;-71
2022/07/03 09:40:46;;;;;;;12.68;3.30;;;;;;;25.78;47.45;101338.59;4965525;28;20043;-68
2022/07/03 09:43:13;;;;;;;9.30;3.45;;;;;;;25.97;47.39;101340.78;4964567;28;20060;-69
2022/07/03 09:45:56;;;;;;;10.98;3.05;;;;;;;26.07;46.78;101336.56;4969882;28;20050;-72
2022/07/03 09:48:25;;;;;;;15.18;3.72;;;;;;;26.19;46.49;101334.72;4969045;28;20055;-73
2022/07/03 09:51:28;;;;;;;8.23;3.10;;;;;;;26.00;45.73;101333.34;4969830;28;20054;-69
2022/07/03 09:54:02;;;;;;;8.98;3.50;;;;;;;26.20;46.26;101330.59;4970947;28;20157;-70
2022/07/03 09:56:37;;;;;;;2.58;1.48;;;;;;;25.86;44.85;101340.56;4969658;28;20107;-66
2022/07/03 09:59:07;;;;;;;7.43;2.38;;;;;;;26.00;46.45;101334.13;4969795;28;20058;-71
2022/07/03 10:01:35;;;;;;;10.93;2.90;;;;;;;26.07;45.07;101333.75;4957739;28;20174;-71
2022/07/03 10:04:15;;;;;;;7.53;3.35;;;;;;;26.06;45.91;101328.56;4965254;28;20070;-70
2022/07/03 10:06:48;;;;;;;4.25;1.77;;;;;;;26.18;45.36;101327.44;4960707;28;20057;-71
2022/07/03 10:09:17;;;;;;;12.00;1.70;;;;;;;26.28;44.51;101320.41;4970700;28;20144;-72
2022/07/03 10:11:44;;;;;;;9.25;3.08;;;;;;;26.48;45.19;101320.47;4968824;28;20074;-73
2022/07/03 10:14:14;;;;;;;11.50;2.78;;;;;;;26.80;45.66;101325.13;4968635;28;20212;-70
2022/07/03 10:16:42;;;;;;;8.05;2.38;;;;;;;26.66;44.43;101325.94;4957990;28;20505;-74
2022/07/03 10:19:15;;;;;;;9.25;2.70;;;;;;;26.87;44.90;101321.84;4959914;28;20054;-71
2022/07/03 10:21:43;;;;;;;6.55;2.60;;;;;;;27.14;44.81;101322.22;4962625;28;20085;-69
2022/07/03 10:24:11;;;;;;;1.95;1.27;;;;;;;26.98;43.13;101319.16;4964235;28;20046;-72
2022/07/03 10:26:39;;;;;;;9.45;3.00;;;;;;;27.15;43.97;101320.16;4964507;28;20133;-69
2022/07/03 10:29:10;;;;;;;4.97;2.30;;;;;;;27.12;44.27;101321.94;4965570;28;20133;-69
2022/07/03 10:31:40;;;;;;;5.20;2.70;;;;;;;26.93;44.25;101319.88;4965936;28;20567;-69
2022/07/03 10:34:07;;;;;;;6.38;2.42;;;;;;;26.91;44.75;101322.44;4964038;28;20105;-69
2022/07/03 10:36:36;;;;;;;5.88;2.05;;;;;;;27.10;45.76;101324.50;4962540;28;20291;-72
2022/07/03 10:39:06;;;;;;;6.88;2.80;;;;;;;27.23;44.04;101327.78;4971891;28;20097;-70
2022/07/03 10:44:45;;;;;;;10.15;3.00;;;;;;;27.33;44.74;101325.56;4961927;28;20133;-70
2022/07/03 10:47:40;;;;;;;7.00;3.15;;;;;;;27.65;44.24;101327.25;4964866;28;20055;-69
2022/07/03 10:50:12;;;;;;;8.63;2.95;;;;;;;27.96;44.37;101320.84;4958153;28;20051;-68
2022/07/03 10:52:39;;;;;;;8.68;3.20;;;;;;;27.60;43.77;101330.78;4964253;28;20690;-72
2022/07/03 10:55:07;;;;;;;2.38;1.55;;;;;;;27.04;43.28;101328.53;4965259;28;20051;-72
2022/07/03 10:57:37;;;;;;;6.57;2.47;;;;;;;27.04;43.73;101337.81;4966854;28;20062;-73
2022/07/03 11:00:13;;;;;;;6.15;1.88;;;;;;;27.32;43.50;101333.34;4945288;28;20057;-68
2022/07/03 11:02:40;;;;;;;;;;;;;;;27.12;42.78;101343.88;4949782;28;20178;-74
2022/07/03 11:05:36;;;;;;;2.42;1.10;;;;;;;27.15;43.55;101337.22;4945123;28;19926;-74
2022/07/03 11:08:04;;;;;;;8.18;2.60;;;;;;;27.45;43.23;101324.44;4947132;28;20065;-72
2022/07/03 11:10:33;;;;;;;4.65;1.27;;;;;;;26.97;43.31;101334.66;4948039;28;20050;-73
2022/07/03 11:13:01;;;;;;;5.05;1.23;;;;;;;26.72;43.63;101329.63;4941256;28;20060;-73
2022/07/03 11:15:36;;;;;;;5.82;2.20;;;;;;;26.69;44.42;101322.88;4949055;28;20109;-75
2022/07/03 11:18:12;;;;;;;13.70;2.40;;;;;;;26.80;44.41;101334.41;4945164;28;20157;-75
2022/07/03 11:20:41;;;;;;;5.20;2.45;;;;;;;26.95;44.28;101329.47;4947520;28;20158;-73
2022/07/03 11:23:26;;;;;;;7.40;2.40;;;;;;;26.98;43.61;101322.00;4945649;28;21016;-74
2022/07/03 11:26:06;;;;;;;4.80;1.80;;;;;;;27.33;44.21;101329.19;4949902;28;20055;-74
2022/07/03 11:28:33;;;;;;;5.78;2.50;;;;;;;27.62;43.74;101318.91;4944815;28;20055;-74
2022/07/03 11:31:18;;;;;;;7.90;2.50;;;;;;;27.94;45.07;101318.50;4948371;28;20101;-73
2022/07/03 11:33:56;;;;;;;6.43;2.15;;;;;;;28.08;42.82;101311.94;4948038;28;20046;-74
2022/07/03 11:36:30;;;;;;;6.47;2.42;;;;;;;28.59;42.63;101316.72;4947775;28;20918;-75
2022/07/03 11:38:59;;;;;;;2.75;0.85;;;;;;;27.93;40.42;101322.63;4946470;28;20046;-76
2022/07/03 11:41:29;;;;;;;7.60;2.33;;;;;;;28.15;41.23;101311.47;4944817;28;20066;-73